Portada
METAR-TAF:

METAR-TAF

Aeroports :

Taree, Austràlia

latitud: 31-53-19S, longitud: 152-30-50E, altitud: 12 m

Observació

L'informe es va fer fa 52 minuts, a les 10:00 UTC
Vent 5 kt del Oest
Temperatura 9°C
Humitat 49%
Pressió 1015 hPa
Visibilitat 10 km o més

METAR: YTRE 161000Z AUTO 28005KT 9999 // NCD 09/M01 Q1015

Hora: 20:52 (10:52 UTC)

Pronòstic

L'informe es va fer fa 10 hores i 3 minuts, a les 00:49 UTC
Pronòstic vàlid del 16 a les 02 UTC al 16 a les 14 UTC
Vent 10 kt del Oest
Visibilitat 10 km o més
sense núvols per sota de 1500 mi sense presència de cumulonimbus.

TAF: YTRE 160049Z 1602/1614 28010KT CAVOK

Observacions i pronòstics meteorològics de més de 4000 aeroports (METAR i TAF).

Les estacions disponibles són els punts grocs i vermells al mapa.

Posi el ratolí al punt desitjat per veure el nom de l'estació.

Feu clic per veure les observacions i els pronòstics meteorològics.

Per canviar el mapa: feu clic els botons verds amb una creu de color negre per apropar; al botó verd amb un guió per allunyar la imatge; o en les fletxes verdes per a mapes adjacents.


METAR-TAF: